createdAt,value
2023-05-05T00:01:08.175Z,101423.41
2023-05-05T00:03:37.932Z,101417.00
2023-05-05T00:06:05.528Z,101417.66
2023-05-05T00:08:32.129Z,101428.34
2023-05-05T00:10:58.659Z,101424.00
2023-05-05T00:13:25.355Z,101420.97
2023-05-05T00:15:53.525Z,101420.97
2023-05-05T00:18:20.668Z,101417.97
2023-05-05T00:20:47.747Z,101418.59
2023-05-05T00:23:17.614Z,101420.03
2023-05-05T00:25:44.352Z,101416.38
2023-05-05T00:28:10.945Z,101418.84
2023-05-05T00:30:38.047Z,101413.41
2023-05-05T00:33:04.597Z,101414.16
2023-05-05T00:35:31.253Z,101407.56
2023-05-05T00:37:58.152Z,101409.66
2023-05-05T00:40:25.260Z,101406.25
2023-05-05T00:42:52.211Z,101412.56
2023-05-05T00:45:19.800Z,101405.06
2023-05-05T00:47:54.866Z,101402.63
2023-05-05T00:50:27.179Z,101402.13
2023-05-05T00:52:56.584Z,101406.75
2023-05-05T00:55:23.198Z,101395.22
2023-05-05T00:57:49.968Z,101396.56
2023-05-05T01:00:16.961Z,101391.22
2023-05-05T01:02:44.487Z,101398.75
2023-05-05T01:09:31.443Z,101396.34
2023-05-05T01:12:14.127Z,101392.94
2023-05-05T01:14:45.139Z,101397.06
2023-05-05T01:17:19.699Z,101393.22
2023-05-05T01:20:23.469Z,101390.53
2023-05-05T01:23:01.296Z,101383.03
2023-05-05T01:25:46.144Z,101385.44
2023-05-05T01:28:35.940Z,101379.63
2023-05-05T01:31:17.793Z,101386.19
2023-05-05T01:33:49.632Z,101380.84
2023-05-05T01:36:23.197Z,101382.53
2023-05-05T01:38:55.762Z,101388.13
2023-05-05T01:41:28.320Z,101383.50
2023-05-05T01:43:57.063Z,101386.66
2023-05-05T01:46:24.644Z,101386.31
2023-05-05T01:48:52.418Z,101388.88
2023-05-05T01:51:21.992Z,101386.09
2023-05-05T01:53:51.897Z,101391.28
2023-05-05T01:56:20.294Z,101385.94
2023-05-05T01:58:48.273Z,101392.25
2023-05-05T02:01:16.342Z,101387.66
2023-05-05T02:03:44.846Z,101386.94
2023-05-05T02:06:13.028Z,101374.31
2023-05-05T02:08:40.722Z,101380.00
2023-05-05T02:11:09.918Z,101373.97
2023-05-05T02:13:37.474Z,101374.81
2023-05-05T02:16:06.117Z,101372.84
2023-05-05T02:18:35.817Z,101380.16
2023-05-05T02:21:03.414Z,101381.25
2023-05-05T02:23:30.667Z,101376.00
2023-05-05T02:26:07.769Z,101376.75
2023-05-05T02:28:47.141Z,101377.72
2023-05-05T02:31:16.413Z,101376.75
2023-05-05T02:33:44.456Z,101378.91
2023-05-05T02:36:21.584Z,101383.53
2023-05-05T02:39:06.420Z,101377.38
2023-05-05T02:41:36.268Z,101378.22
2023-05-05T02:44:04.309Z,101367.78
2023-05-05T02:46:31.391Z,101368.75
2023-05-05T02:48:59.707Z,101373.09
2023-05-05T02:51:26.279Z,101377.84
2023-05-05T02:53:52.757Z,101368.47
2023-05-05T02:56:39.807Z,101368.25
2023-05-05T02:59:29.582Z,101370.44
2023-05-05T03:02:01.757Z,101369.84
2023-05-05T03:04:45.728Z,101378.22
2023-05-05T03:07:21.764Z,101372.50
2023-05-05T03:10:06.220Z,101378.91
2023-05-05T03:12:46.770Z,101378.44
2023-05-05T03:15:14.241Z,101364.38
2023-05-05T03:17:44.034Z,101371.75
2023-05-05T03:20:12.467Z,101370.91
2023-05-05T03:22:38.928Z,101370.41
2023-05-05T03:25:06.259Z,101371.75
2023-05-05T03:27:32.722Z,101361.69
2023-05-05T03:29:59.307Z,101372.34
2023-05-05T03:32:26.155Z,101367.13
2023-05-05T03:34:52.786Z,101365.41
2023-05-05T03:37:19.275Z,101367.47
2023-05-05T03:39:45.694Z,101372.81
2023-05-05T03:42:12.155Z,101377.28
2023-05-05T03:44:38.647Z,101368.78
2023-05-05T03:47:05.545Z,101374.13
2023-05-05T03:49:31.992Z,101372.28
2023-05-05T03:51:58.461Z,101368.16
2023-05-05T03:54:25.158Z,101366.44
2023-05-05T03:56:51.665Z,101367.16
2023-05-05T03:59:18.140Z,101372.16
2023-05-05T04:01:46.591Z,101370.13
2023-05-05T04:04:13.197Z,101369.19
2023-05-05T04:06:39.788Z,101367.16
2023-05-05T04:09:06.424Z,101368.84
2023-05-05T04:11:33.041Z,101373.34
2023-05-05T04:13:59.534Z,101363.53
2023-05-05T04:16:26.215Z,101365.53
2023-05-05T04:18:52.842Z,101361.19
2023-05-05T04:21:19.290Z,101357.13
2023-05-05T04:23:45.753Z,101365.47
2023-05-05T04:26:12.218Z,101371.84
2023-05-05T04:28:38.802Z,101373.97
2023-05-05T04:31:06.075Z,101384.38
2023-05-05T04:33:32.634Z,101375.09
2023-05-05T04:35:59.080Z,101386.63
2023-05-05T04:38:25.827Z,101377.53
2023-05-05T04:40:52.416Z,101379.59
2023-05-05T04:43:19.783Z,101375.94
2023-05-05T04:45:55.722Z,101376.09
2023-05-05T04:48:22.353Z,101387.13
2023-05-05T04:50:49.116Z,101390.50
2023-05-05T04:53:15.703Z,101389.81
2023-05-05T04:55:42.149Z,101394.41
2023-05-05T04:58:08.568Z,101403.75
2023-05-05T05:00:37.224Z,101398.28
2023-05-05T05:03:04.426Z,101397.81
2023-05-05T05:05:30.883Z,101406.94
2023-05-05T05:07:57.457Z,101401.13
2023-05-05T05:10:24.181Z,101403.94
2023-05-05T05:12:50.717Z,101405.84
2023-05-05T05:15:17.280Z,101405.84
2023-05-05T05:17:43.790Z,101407.44
2023-05-05T05:20:10.793Z,101410.22
2023-05-05T05:22:38.956Z,101408.25
2023-05-05T05:25:05.856Z,101408.53
2023-05-05T05:27:32.587Z,101415.78
2023-05-05T05:29:59.094Z,101413.13
2023-05-05T05:32:25.532Z,101402.66
2023-05-05T05:34:52.027Z,101407.28
2023-05-05T05:37:18.523Z,101411.97
2023-05-05T05:39:51.306Z,101408.25
2023-05-05T05:42:17.829Z,101408.97
2023-05-05T05:44:44.420Z,101414.94
2023-05-05T05:47:11.026Z,101408.03
2023-05-05T05:49:37.508Z,101419.91
2023-05-05T05:52:04.509Z,101412.88
2023-05-05T05:54:32.828Z,101403.66
2023-05-05T05:56:59.292Z,101412.88
2023-05-05T05:59:25.917Z,101401.31
2023-05-05T06:01:52.342Z,101410.91
2023-05-05T06:04:25.665Z,101415.97
2023-05-05T06:06:52.247Z,101412.97
2023-05-05T06:09:18.719Z,101415.34
2023-05-05T06:11:45.720Z,101418.16
2023-05-05T06:14:12.431Z,101415.75
2023-05-05T06:16:38.865Z,101423.28
2023-05-05T06:19:09.491Z,101427.31
2023-05-05T06:21:36.513Z,101421.91
2023-05-05T06:24:03.028Z,101422.75
2023-05-05T06:26:29.514Z,101423.25
2023-05-05T06:28:56.147Z,101420.31
2023-05-05T06:31:22.816Z,101427.13
2023-05-05T06:33:49.400Z,101424.34
2023-05-05T06:36:16.451Z,101424.84
2023-05-05T06:38:42.936Z,101430.03
2023-05-05T06:41:09.376Z,101425.03
2023-05-05T06:43:35.923Z,101430.13
2023-05-05T06:46:02.358Z,101430.25
2023-05-05T06:48:29.019Z,101424.69
2023-05-05T06:50:56.734Z,101417.91
2023-05-05T06:53:23.180Z,101427.94
2023-05-05T06:55:49.633Z,101428.88
2023-05-05T06:58:16.143Z,101439.84
2023-05-05T07:00:43.358Z,101431.19
2023-05-05T07:03:09.944Z,101431.06
2023-05-05T07:05:36.836Z,101429.59
2023-05-05T07:08:03.646Z,101435.16
2023-05-05T07:10:31.471Z,101433.91
2023-05-05T07:12:58.129Z,101432.16
2023-05-05T07:15:29.178Z,101433.19
2023-05-05T07:17:56.609Z,101433.69
2023-05-05T07:20:23.374Z,101423.81
2023-05-05T07:22:49.892Z,101429.06
2023-05-05T07:25:16.506Z,101432.88
2023-05-05T07:27:43.308Z,101431.88
2023-05-05T07:30:14.075Z,101434.56
2023-05-05T07:32:42.039Z,101443.81
2023-05-05T07:35:09.000Z,101447.44
2023-05-05T07:37:35.928Z,101443.19
2023-05-05T07:40:02.393Z,101458.81
2023-05-05T07:42:28.986Z,101448.97
2023-05-05T07:44:55.395Z,101451.28
2023-05-05T07:47:22.045Z,101454.47
2023-05-05T07:49:48.550Z,101464.28
2023-05-05T07:52:14.998Z,101459.47
2023-05-05T07:54:42.358Z,101450.56
2023-05-05T07:57:08.836Z,101447.13
2023-05-05T07:59:35.331Z,101449.31
2023-05-05T08:02:02.063Z,101438.72
2023-05-05T08:04:28.629Z,101435.28
2023-05-05T08:06:55.134Z,101426.97
2023-05-05T08:09:21.902Z,101434.19
2023-05-05T08:11:48.402Z,101433.44
2023-05-05T08:14:15.324Z,101432.81
2023-05-05T08:16:41.869Z,101436.13
2023-05-05T08:19:21.184Z,101436.88
2023-05-05T08:21:51.630Z,101435.84
2023-05-05T08:24:18.105Z,101428.81
2023-05-05T08:26:44.614Z,101435.28
2023-05-05T08:29:11.112Z,101440.16
2023-05-05T08:31:37.586Z,101432.69
2023-05-05T08:34:05.916Z,101436.28
2023-05-05T08:36:33.213Z,101427.72
2023-05-05T08:39:00.340Z,101426.25
2023-05-05T08:41:27.987Z,101420.41
2023-05-05T08:43:54.525Z,101423.44
2023-05-05T08:46:22.452Z,101419.38
2023-05-05T08:48:49.018Z,101414.63
2023-05-05T08:51:21.645Z,101410.59
2023-05-05T08:54:05.790Z,101417.16
2023-05-05T08:56:34.773Z,101418.03
2023-05-05T08:59:02.483Z,101409.63
2023-05-05T09:01:32.008Z,101423.31
2023-05-05T09:03:59.926Z,101420.06
2023-05-05T09:06:27.396Z,101423.47
2023-05-05T09:08:54.554Z,101424.78
2023-05-05T09:11:22.557Z,101424.75
2023-05-05T09:13:49.747Z,101420.53
2023-05-05T09:16:16.475Z,101411.78
2023-05-05T09:18:43.043Z,101415.88
2023-05-05T09:21:24.643Z,101407.22
2023-05-05T09:24:08.079Z,101404.66
2023-05-05T09:26:56.906Z,101404.44
2023-05-05T09:29:24.584Z,101408.47
2023-05-05T09:32:08.401Z,101397.78
2023-05-05T09:34:36.083Z,101406.63
2023-05-05T09:37:03.411Z,101402.50
2023-05-05T09:39:29.964Z,101404.59
2023-05-05T09:41:56.488Z,101398.09
2023-05-05T09:44:37.137Z,101388.94
2023-05-05T09:47:07.203Z,101402.06
2023-05-05T09:49:38.874Z,101399.00
2023-05-05T09:52:15.479Z,101398.66
2023-05-05T09:54:43.410Z,101405.91
2023-05-05T09:57:26.093Z,101402.72
2023-05-05T09:59:57.486Z,101414.56
2023-05-05T10:02:34.777Z,101403.53
2023-05-05T10:05:10.893Z,101405.22
2023-05-05T10:07:39.228Z,101399.81
2023-05-05T10:10:08.277Z,101402.63
2023-05-05T10:12:38.821Z,101400.97
2023-05-05T10:15:07.374Z,101393.22
2023-05-05T10:17:54.319Z,101389.34
2023-05-05T10:20:33.035Z,101389.69
2023-05-05T10:23:02.560Z,101386.50
2023-05-05T10:25:31.370Z,101378.31
2023-05-05T10:28:00.954Z,101377.19
2023-05-05T10:30:32.055Z,101386.78
2023-05-05T10:35:53.853Z,101374.44
2023-05-05T10:38:21.506Z,101377.03
2023-05-05T10:40:48.926Z,101378.69
2023-05-05T10:43:15.736Z,101369.75
2023-05-05T10:45:43.709Z,101376.66
2023-05-05T10:48:17.578Z,101376.38
2023-05-05T10:50:56.745Z,101369.94
2023-05-05T10:53:32.697Z,101377.69
2023-05-05T10:56:06.397Z,101365.53
2023-05-05T10:58:43.664Z,101364.34
2023-05-05T11:01:29.139Z,101365.06
2023-05-05T11:04:19.146Z,101353.88
2023-05-05T11:07:14.763Z,101344.44
2023-05-05T11:09:59.060Z,101335.09
2023-05-05T11:12:25.649Z,101344.22
2023-05-05T11:15:26.195Z,101341.03
2023-05-05T11:17:54.071Z,101344.31
2023-05-05T11:20:40.849Z,101344.41
2023-05-05T11:23:07.373Z,101334.06
2023-05-05T11:25:37.195Z,101342.72
2023-05-05T11:28:11.935Z,101332.88
2023-05-05T11:30:57.750Z,101335.13
2023-05-05T11:33:25.717Z,101330.28
2023-05-05T11:36:06.372Z,101323.47
2023-05-05T11:38:36.196Z,101322.34
2023-05-05T11:41:27.317Z,101308.72
2023-05-05T11:44:13.504Z,101306.19
2023-05-05T11:46:41.595Z,101309.66
2023-05-05T11:49:09.199Z,101309.19
2023-05-05T11:51:36.303Z,101307.03
2023-05-05T11:54:02.838Z,101307.81
2023-05-05T11:56:29.687Z,101299.63
2023-05-05T11:59:09.490Z,101296.44
2023-05-05T12:01:40.925Z,101298.75
2023-05-05T12:04:11.775Z,101297.56
2023-05-05T12:06:39.041Z,101292.38
2023-05-05T12:09:06.877Z,101296.72
2023-05-05T12:11:33.356Z,101288.81
2023-05-05T12:14:12.067Z,101294.19
2023-05-05T12:16:39.326Z,101282.72
2023-05-05T12:19:07.480Z,101286.81
2023-05-05T12:21:36.813Z,101278.22
2023-05-05T12:24:03.349Z,101277.00
2023-05-05T12:26:32.830Z,101275.00
2023-05-05T12:29:00.377Z,101275.66
2023-05-05T12:31:41.584Z,101270.94
2023-05-05T12:34:11.939Z,101277.19
2023-05-05T12:36:39.478Z,101271.09
2023-05-05T12:39:06.261Z,101284.97
2023-05-05T12:41:33.800Z,101273.53
2023-05-05T12:44:02.897Z,101275.59
2023-05-05T12:46:29.817Z,101269.00
2023-05-05T12:49:01.863Z,101273.03
2023-05-05T12:51:28.542Z,101264.75
2023-05-05T12:54:09.501Z,101265.03
2023-05-05T12:56:40.546Z,101272.25
2023-05-05T12:59:09.271Z,101263.91
2023-05-05T13:01:37.814Z,101267.69
2023-05-05T13:04:05.166Z,101263.94
2023-05-05T13:06:32.599Z,101253.00
2023-05-05T13:08:59.136Z,101243.13
2023-05-05T13:11:25.654Z,101256.81
2023-05-05T13:13:52.128Z,101246.13
2023-05-05T13:16:18.745Z,101242.53
2023-05-05T13:18:45.647Z,101240.25
2023-05-05T13:21:12.572Z,101228.94
2023-05-05T13:23:43.026Z,101226.09
2023-05-05T13:26:09.827Z,101227.50
2023-05-05T13:28:36.281Z,101212.53
2023-05-05T13:31:02.827Z,101214.66
2023-05-05T13:33:29.322Z,101225.47
2023-05-05T13:35:55.883Z,101220.22
2023-05-05T13:38:22.349Z,101210.88
2023-05-05T13:40:48.782Z,101218.50
2023-05-05T13:43:15.341Z,101213.94
2023-05-05T13:45:42.101Z,101219.31
2023-05-05T13:48:08.692Z,101205.94
2023-05-05T13:50:35.201Z,101202.41
2023-05-05T13:53:01.781Z,101201.69
2023-05-05T13:55:29.022Z,101192.47
2023-05-05T13:57:55.723Z,101194.94
2023-05-05T14:00:22.702Z,101191.56
2023-05-05T14:02:49.442Z,101195.78
2023-05-05T14:05:16.416Z,101189.75
2023-05-05T14:07:43.043Z,101182.09
2023-05-05T14:10:09.859Z,101185.16
2023-05-05T14:12:36.558Z,101168.72
2023-05-05T14:15:04.286Z,101172.69
2023-05-05T14:17:30.788Z,101167.44
2023-05-05T14:19:57.235Z,101160.50
2023-05-05T14:22:24.169Z,101158.28
2023-05-05T14:24:50.674Z,101158.38
2023-05-05T14:27:17.165Z,101160.50
2023-05-05T14:29:43.640Z,101163.53
2023-05-05T14:32:10.155Z,101154.44
2023-05-05T14:34:36.687Z,101157.13
2023-05-05T14:37:03.394Z,101155.28
2023-05-05T14:39:29.953Z,101163.69
2023-05-05T14:41:56.442Z,101168.84
2023-05-05T14:44:22.942Z,101155.72
2023-05-05T14:46:51.047Z,101151.31
2023-05-05T14:49:17.677Z,101143.56
2023-05-05T14:51:44.144Z,101144.44
2023-05-05T14:54:24.253Z,101152.28
2023-05-05T14:56:54.204Z,101152.06
2023-05-05T14:59:20.680Z,101148.50
2023-05-05T15:01:48.140Z,101154.94
2023-05-05T15:04:14.824Z,101156.25
2023-05-05T15:06:41.274Z,101148.56
2023-05-05T15:09:07.777Z,101150.28
2023-05-05T15:11:34.297Z,101136.28
2023-05-05T15:14:00.840Z,101143.41
2023-05-05T15:16:27.475Z,101140.28
2023-05-05T15:18:54.085Z,101136.84
2023-05-05T15:21:20.878Z,101138.03
2023-05-05T15:23:47.395Z,101139.13
2023-05-05T15:26:13.890Z,101125.19
2023-05-05T15:28:41.371Z,101137.44
2023-05-05T15:31:07.875Z,101129.81
2023-05-05T15:33:34.817Z,101119.63
2023-05-05T15:36:01.385Z,101127.53
2023-05-05T15:38:29.258Z,101125.03
2023-05-05T15:40:55.889Z,101124.47
2023-05-05T15:43:22.481Z,101127.00
2023-05-05T15:45:49.248Z,101132.22
2023-05-05T15:48:15.815Z,101131.69
2023-05-05T15:50:42.328Z,101130.81
2023-05-05T15:53:08.769Z,101127.41
2023-05-05T15:55:35.768Z,101118.84
2023-05-05T15:58:02.235Z,101117.63
2023-05-05T16:00:28.714Z,101119.03
2023-05-05T16:02:55.243Z,101119.50
2023-05-05T16:05:23.123Z,101120.34
2023-05-05T16:07:49.876Z,101125.97
2023-05-05T16:10:17.649Z,101127.25
2023-05-05T16:12:44.134Z,101113.41
2023-05-05T16:15:11.324Z,101130.31
2023-05-05T16:17:38.084Z,101123.31
2023-05-05T16:20:05.057Z,101120.50
2023-05-05T16:22:31.635Z,101134.47
2023-05-05T16:24:58.077Z,101115.41
2023-05-05T16:27:24.678Z,101121.81
2023-05-05T16:29:51.347Z,101120.28
2023-05-05T16:32:17.826Z,101122.00
2023-05-05T16:34:44.601Z,101116.72
2023-05-05T16:37:13.231Z,101120.47
2023-05-05T16:39:41.190Z,101117.81
2023-05-05T16:42:07.864Z,101111.59
2023-05-05T16:44:34.368Z,101122.59
2023-05-05T16:47:01.036Z,101121.50
2023-05-05T16:49:27.561Z,101110.63
2023-05-05T16:51:54.037Z,101111.09
2023-05-05T16:54:20.528Z,101112.28
2023-05-05T16:56:46.987Z,101112.47
2023-05-05T16:59:15.547Z,101114.03
2023-05-05T17:01:43.390Z,101107.66
2023-05-05T17:04:10.953Z,101105.00
2023-05-05T17:06:37.470Z,101094.59
2023-05-05T17:09:04.082Z,101101.31
2023-05-05T17:11:30.557Z,101104.53
2023-05-05T17:13:57.751Z,101098.50
2023-05-05T17:16:24.316Z,101095.81
2023-05-05T17:18:51.021Z,101097.34
2023-05-05T17:21:17.493Z,101097.53
2023-05-05T17:23:43.924Z,101094.66
2023-05-05T17:26:10.512Z,101100.06
2023-05-05T17:28:36.942Z,101097.66
2023-05-05T17:31:03.410Z,101101.88
2023-05-05T17:33:29.893Z,101104.78
2023-05-05T17:35:56.446Z,101091.31
2023-05-05T17:38:23.026Z,101101.06
2023-05-05T17:40:49.459Z,101097.38
2023-05-05T17:43:16.196Z,101103.28
2023-05-05T17:45:42.727Z,101090.31
2023-05-05T17:48:09.161Z,101094.53
2023-05-05T17:50:35.600Z,101084.94
2023-05-05T17:53:02.119Z,101084.25
2023-05-05T17:55:28.821Z,101088.47
2023-05-05T17:57:57.198Z,101085.59
2023-05-05T18:00:23.778Z,101089.00
2023-05-05T18:02:50.522Z,101089.50
2023-05-05T18:05:17.310Z,101090.69
2023-05-05T18:07:43.750Z,101088.31
2023-05-05T18:10:13.129Z,101092.16
2023-05-05T18:12:39.684Z,101087.94
2023-05-05T18:15:07.084Z,101094.22
2023-05-05T18:17:33.717Z,101105.78
2023-05-05T18:20:00.271Z,101109.50
2023-05-05T18:22:26.772Z,101103.19
2023-05-05T18:24:58.852Z,101104.03
2023-05-05T18:27:26.935Z,101104.22
2023-05-05T18:29:53.583Z,101098.63
2023-05-05T18:32:20.321Z,101114.09
2023-05-05T18:34:46.758Z,101121.13
2023-05-05T18:37:13.202Z,101123.09
2023-05-05T18:39:39.668Z,101130.84
2023-05-05T18:42:07.820Z,101128.63
2023-05-05T18:44:34.961Z,101128.09
2023-05-05T18:47:01.475Z,101131.28
2023-05-05T18:49:29.581Z,101127.03
2023-05-05T18:51:57.792Z,101137.66
2023-05-05T18:54:24.333Z,101145.25
2023-05-05T18:56:50.776Z,101142.00
2023-05-05T18:59:17.721Z,101151.88
2023-05-05T19:01:44.802Z,101152.22
2023-05-05T19:04:22.860Z,101144.63
2023-05-05T19:06:56.375Z,101148.44
2023-05-05T19:09:22.880Z,101150.38
2023-05-05T19:11:49.341Z,101149.38
2023-05-05T19:14:16.681Z,101142.31
2023-05-05T19:16:43.206Z,101134.25
2023-05-05T19:19:10.977Z,101132.72
2023-05-05T19:21:38.809Z,101134.88
2023-05-05T19:24:08.353Z,101138.09
2023-05-05T19:26:34.907Z,101143.22
2023-05-05T19:29:01.373Z,101141.75
2023-05-05T19:31:28.181Z,101157.75
2023-05-05T19:34:00.373Z,101170.50
2023-05-05T19:36:27.781Z,101169.72
2023-05-05T19:38:55.799Z,101167.75
2023-05-05T19:41:22.376Z,101157.38
2023-05-05T19:43:50.031Z,101175.97
2023-05-05T19:46:19.803Z,101171.69
2023-05-05T19:48:46.473Z,101165.63
2023-05-05T19:51:13.216Z,101163.22
2023-05-05T19:53:40.169Z,101165.09
2023-05-05T19:56:06.899Z,101171.94
2023-05-05T19:58:59.224Z,101169.53
2023-05-05T20:01:27.072Z,101161.00
2023-05-05T20:03:55.577Z,101162.63
2023-05-05T20:06:22.979Z,101157.91
2023-05-05T20:08:49.586Z,101155.41
2023-05-05T20:11:16.877Z,101152.63
2023-05-05T20:13:43.554Z,101160.22
2023-05-05T20:16:10.271Z,101155.91
2023-05-05T20:18:36.912Z,101155.69
2023-05-05T20:21:03.578Z,101146.41
2023-05-05T20:23:30.345Z,101172.56
2023-05-05T20:25:56.812Z,101160.19
2023-05-05T20:28:23.540Z,101170.47
2023-05-05T20:30:50.035Z,101167.31
2023-05-05T20:33:16.502Z,101154.72
2023-05-05T20:35:43.016Z,101155.25
2023-05-05T20:38:09.818Z,101166.63
2023-05-05T20:40:36.412Z,101156.72
2023-05-05T20:43:02.967Z,101162.34
2023-05-05T20:45:31.652Z,101157.28
2023-05-05T20:47:58.652Z,101155.13
2023-05-05T20:50:25.266Z,101164.34
2023-05-05T20:52:51.699Z,101155.94
2023-05-05T20:55:18.219Z,101151.13
2023-05-05T20:57:44.718Z,101172.94
2023-05-05T21:00:11.989Z,101172.81
2023-05-05T21:02:38.914Z,101175.63
2023-05-05T21:05:06.026Z,101179.56
2023-05-05T21:07:35.642Z,101166.41
2023-05-05T21:10:03.419Z,101157.91
2023-05-05T21:12:30.531Z,101152.53
2023-05-05T21:14:58.816Z,101152.06
2023-05-05T21:17:26.708Z,101161.78
2023-05-05T21:19:54.125Z,101158.50
2023-05-05T21:22:21.436Z,101166.13
2023-05-05T21:24:48.180Z,101156.44
2023-05-05T21:27:15.146Z,101153.41
2023-05-05T21:29:41.666Z,101149.13
2023-05-05T21:32:09.889Z,101144.47
2023-05-05T21:34:37.429Z,101148.31
2023-05-05T21:37:04.283Z,101156.25
2023-05-05T21:39:32.342Z,101148.34
2023-05-05T21:42:00.300Z,101160.63
2023-05-05T21:44:28.216Z,101145.97
2023-05-05T21:46:55.365Z,101152.69
2023-05-05T21:49:21.922Z,101156.94
2023-05-05T21:51:48.431Z,101159.63
2023-05-05T21:54:14.903Z,101168.09
2023-05-05T21:56:41.369Z,101159.22
2023-05-05T21:59:07.871Z,101158.97
2023-05-05T22:01:35.387Z,101158.56
2023-05-05T22:04:02.108Z,101157.00
2023-05-05T22:06:28.689Z,101151.88
2023-05-05T22:08:56.685Z,101159.19
2023-05-05T22:11:23.331Z,101179.94
2023-05-05T22:13:49.844Z,101179.41
2023-05-05T22:16:19.810Z,101189.22
2023-05-05T22:18:46.796Z,101187.34
2023-05-05T22:21:13.327Z,101187.09
2023-05-05T22:23:41.776Z,101189.69
2023-05-05T22:26:09.369Z,101194.63
2023-05-05T22:28:36.493Z,101189.47
2023-05-05T22:31:03.012Z,101190.84
2023-05-05T22:33:29.510Z,101180.88
2023-05-05T22:35:56.485Z,101178.69
2023-05-05T22:38:23.004Z,101175.78
2023-05-05T22:40:49.498Z,101177.00
2023-05-05T22:43:16.039Z,101177.84
2023-05-05T22:45:43.241Z,101181.13
2023-05-05T22:48:09.788Z,101180.06
2023-05-05T22:50:36.630Z,101179.59
2023-05-05T22:53:03.103Z,101170.22
2023-05-05T22:55:29.573Z,101175.06
2023-05-05T22:57:56.238Z,101170.13
2023-05-05T23:00:22.725Z,101165.41
2023-05-05T23:02:49.270Z,101167.00
2023-05-05T23:05:15.993Z,101154.91
2023-05-05T23:07:42.427Z,101151.78
2023-05-05T23:10:09.609Z,101145.25
2023-05-05T23:12:36.122Z,101146.56
2023-05-05T23:15:02.624Z,101146.22
2023-05-05T23:17:29.234Z,101142.00
2023-05-05T23:19:55.834Z,101080.25
2023-05-05T23:22:22.337Z,101090.75
2023-05-05T23:38:43.780Z,101050.97
2023-05-05T23:41:10.266Z,101051.47
2023-05-05T23:43:36.704Z,101052.88
2023-05-05T23:46:03.248Z,101067.75
2023-05-05T23:48:29.843Z,101089.81
2023-05-05T23:50:56.257Z,101078.66
2023-05-05T23:53:22.926Z,101077.09
2023-05-05T23:55:49.389Z,101069.22
2023-05-05T23:58:15.925Z,101071.16
